sensor_id;sensor_type;location;lat;lon;timestamp;P1;durP1;ratioP1;P2;durP2;ratioP2
6868;SDS011;3473;42.604;23.496;2022-10-19T00:00:10;3.80;;;1.97;;
6868;SDS011;3473;42.604;23.496;2022-10-19T00:01:42;1.23;;;1.00;;
6868;SDS011;3473;42.604;23.496;2022-10-19T00:03:13;0.80;;;0.80;;
6868;SDS011;3473;42.604;23.496;2022-10-19T00:04:45;1.40;;;1.00;;
6868;SDS011;3473;42.604;23.496;2022-10-19T00:06:18;3.03;;;1.10;;
6868;SDS011;3473;42.604;23.496;2022-10-19T00:07:55;6.37;;;2.40;;
6868;SDS011;3473;42.604;23.496;2022-10-19T00:09:30;8.37;;;2.77;;
6868;SDS011;3473;42.604;23.496;2022-10-19T00:11:02;11.63;;;3.53;;
6868;SDS011;3473;42.604;23.496;2022-10-19T00:12:33;18.43;;;3.03;;
6868;SDS011;3473;42.604;23.496;2022-10-19T00:14:05;3.17;;;1.10;;
6868;SDS011;3473;42.604;23.496;2022-10-19T00:15:37;5.87;;;1.63;;
6868;SDS011;3473;42.604;23.496;2022-10-19T00:17:08;1.97;;;1.57;;
6868;SDS011;3473;42.604;23.496;2022-10-19T00:18:40;8.37;;;1.50;;
6868;SDS011;3473;42.604;23.496;2022-10-19T00:20:12;2.60;;;1.53;;
6868;SDS011;3473;42.604;23.496;2022-10-19T00:21:44;9.30;;;2.43;;
6868;SDS011;3473;42.604;23.496;2022-10-19T00:23:16;16.37;;;4.43;;
6868;SDS011;3473;42.604;23.496;2022-10-19T00:24:47;4.87;;;2.67;;
6868;SDS011;3473;42.604;23.496;2022-10-19T00:26:18;12.13;;;3.60;;
6868;SDS011;3473;42.604;23.496;2022-10-19T00:27:50;6.03;;;3.47;;
6868;SDS011;3473;42.604;23.496;2022-10-19T00:29:22;7.43;;;3.20;;
6868;SDS011;3473;42.604;23.496;2022-10-19T00:30:53;5.00;;;2.70;;
6868;SDS011;3473;42.604;23.496;2022-10-19T00:32:24;7.80;;;1.77;;
6868;SDS011;3473;42.604;23.496;2022-10-19T00:33:55;3.50;;;1.47;;
6868;SDS011;3473;42.604;23.496;2022-10-19T00:35:27;2.50;;;1.23;;
6868;SDS011;3473;42.604;23.496;2022-10-19T00:36:59;3.83;;;1.37;;
6868;SDS011;3473;42.604;23.496;2022-10-19T00:38:32;2.67;;;1.60;;
6868;SDS011;3473;42.604;23.496;2022-10-19T00:40:04;3.63;;;1.90;;
6868;SDS011;3473;42.604;23.496;2022-10-19T00:41:36;2.80;;;1.20;;
6868;SDS011;3473;42.604;23.496;2022-10-19T00:43:08;1.87;;;1.23;;
6868;SDS011;3473;42.604;23.496;2022-10-19T00:44:56;3.63;;;1.87;;
6868;SDS011;3473;42.604;23.496;2022-10-19T00:46:29;1.83;;;0.90;;
6868;SDS011;3473;42.604;23.496;2022-10-19T00:48:00;1.90;;;1.50;;
6868;SDS011;3473;42.604;23.496;2022-10-19T00:49:33;1.53;;;0.97;;
6868;SDS011;3473;42.604;23.496;2022-10-19T00:51:06;1.40;;;0.80;;
6868;SDS011;3473;42.604;23.496;2022-10-19T00:52:37;0.80;;;0.80;;
6868;SDS011;3473;42.604;23.496;2022-10-19T00:54:10;1.50;;;0.93;;
6868;SDS011;3473;42.604;23.496;2022-10-19T00:55:42;2.10;;;0.90;;
6868;SDS011;3473;42.604;23.496;2022-10-19T00:57:13;0.77;;;0.77;;
6868;SDS011;3473;42.604;23.496;2022-10-19T00:58:44;3.53;;;0.80;;
6868;SDS011;3473;42.604;23.496;2022-10-19T01:00:16;3.03;;;0.70;;
6868;SDS011;3473;42.604;23.496;2022-10-19T01:01:46;1.90;;;1.03;;
6868;SDS011;3473;42.604;23.496;2022-10-19T01:03:19;1.73;;;1.00;;
6868;SDS011;3473;42.604;23.496;2022-10-19T01:04:51;1.27;;;1.00;;
6868;SDS011;3473;42.604;23.496;2022-10-19T01:06:23;1.37;;;1.17;;
6868;SDS011;3473;42.604;23.496;2022-10-19T01:07:55;2.73;;;1.30;;
6868;SDS011;3473;42.604;23.496;2022-10-19T01:09:29;5.40;;;1.70;;
6868;SDS011;3473;42.604;23.496;2022-10-19T01:11:01;7.50;;;2.40;;
6868;SDS011;3473;42.604;23.496;2022-10-19T01:14:32;3.30;;;1.50;;
6868;SDS011;3473;42.604;23.496;2022-10-19T01:16:09;2.70;;;1.70;;
6868;SDS011;3473;42.604;23.496;2022-10-19T01:17:44;2.50;;;0.93;;
6868;SDS011;3473;42.604;23.496;2022-10-19T01:19:23;1.53;;;0.97;;
6868;SDS011;3473;42.604;23.496;2022-10-19T01:22:59;1.43;;;0.70;;
6868;SDS011;3473;42.604;23.496;2022-10-19T01:24:47;1.03;;;0.80;;
6868;SDS011;3473;42.604;23.496;2022-10-19T01:26:24;0.50;;;0.50;;
6868;SDS011;3473;42.604;23.496;2022-10-19T01:28:08;2.00;;;0.63;;
6868;SDS011;3473;42.604;23.496;2022-10-19T01:29:54;2.00;;;0.97;;
6868;SDS011;3473;42.604;23.496;2022-10-19T01:31:26;0.67;;;0.40;;
6868;SDS011;3473;42.604;23.496;2022-10-19T01:33:06;3.50;;;1.20;;
6868;SDS011;3473;42.604;23.496;2022-10-19T01:34:42;1.03;;;0.90;;
6868;SDS011;3473;42.604;23.496;2022-10-19T01:36:17;0.63;;;0.50;;
6868;SDS011;3473;42.604;23.496;2022-10-19T01:37:53;1.20;;;0.87;;
6868;SDS011;3473;42.604;23.496;2022-10-19T01:39:27;1.93;;;1.33;;
6868;SDS011;3473;42.604;23.496;2022-10-19T01:41:11;1.13;;;0.63;;
6868;SDS011;3473;42.604;23.496;2022-10-19T01:42:45;3.53;;;1.37;;
6868;SDS011;3473;42.604;23.496;2022-10-19T01:44:30;2.47;;;0.73;;
6868;SDS011;3473;42.604;23.496;2022-10-19T01:46:08;2.73;;;1.30;;
6868;SDS011;3473;42.604;23.496;2022-10-19T01:47:44;0.90;;;0.63;;
6868;SDS011;3473;42.604;23.496;2022-10-19T01:49:18;0.33;;;0.33;;
6868;SDS011;3473;42.604;23.496;2022-10-19T01:50:51;1.13;;;0.70;;
6868;SDS011;3473;42.604;23.496;2022-10-19T01:52:24;0.37;;;0.37;;
6868;SDS011;3473;42.604;23.496;2022-10-19T01:53:57;0.50;;;0.50;;
6868;SDS011;3473;42.604;23.496;2022-10-19T01:55:29;0.33;;;0.33;;
6868;SDS011;3473;42.604;23.496;2022-10-19T01:57:00;1.33;;;0.63;;
6868;SDS011;3473;42.604;23.496;2022-10-19T01:58:34;0.93;;;0.77;;
6868;SDS011;3473;42.604;23.496;2022-10-19T02:00:07;0.33;;;0.33;;
6868;SDS011;3473;42.604;23.496;2022-10-19T02:01:43;0.93;;;0.43;;
6868;SDS011;3473;42.604;23.496;2022-10-19T02:03:15;0.77;;;0.70;;
6868;SDS011;3473;42.604;23.496;2022-10-19T02:04:47;1.47;;;0.90;;
6868;SDS011;3473;42.604;23.496;2022-10-19T02:06:19;27.33;;;0.80;;
6868;SDS011;3473;42.604;23.496;2022-10-19T02:07:53;0.77;;;0.30;;
6868;SDS011;3473;42.604;23.496;2022-10-19T02:09:24;0.73;;;0.57;;
6868;SDS011;3473;42.604;23.496;2022-10-19T02:10:55;0.43;;;0.43;;
6868;SDS011;3473;42.604;23.496;2022-10-19T02:12:27;0.53;;;0.33;;
6868;SDS011;3473;42.604;23.496;2022-10-19T02:14:00;0.80;;;0.60;;
6868;SDS011;3473;42.604;23.496;2022-10-19T02:15:34;0.60;;;0.60;;
6868;SDS011;3473;42.604;23.496;2022-10-19T02:17:10;0.67;;;0.40;;
6868;SDS011;3473;42.604;23.496;2022-10-19T02:18:44;0.90;;;0.50;;
6868;SDS011;3473;42.604;23.496;2022-10-19T02:20:15;1.87;;;0.70;;
6868;SDS011;3473;42.604;23.496;2022-10-19T02:21:47;0.63;;;0.40;;
6868;SDS011;3473;42.604;23.496;2022-10-19T02:23:19;0.53;;;0.50;;
6868;SDS011;3473;42.604;23.496;2022-10-19T02:24:51;0.40;;;0.40;;
6868;SDS011;3473;42.604;23.496;2022-10-19T02:26:22;0.50;;;0.50;;
6868;SDS011;3473;42.604;23.496;2022-10-19T02:27:54;2.67;;;0.50;;
6868;SDS011;3473;42.604;23.496;2022-10-19T02:29:25;0.70;;;0.70;;
6868;SDS011;3473;42.604;23.496;2022-10-19T02:30:57;0.73;;;0.73;;
6868;SDS011;3473;42.604;23.496;2022-10-19T02:32:30;6.23;;;0.97;;
6868;SDS011;3473;42.604;23.496;2022-10-19T02:34:02;0.50;;;0.50;;
6868;SDS011;3473;42.604;23.496;2022-10-19T02:35:33;0.50;;;0.50;;
6868;SDS011;3473;42.604;23.496;2022-10-19T02:37:04;1.83;;;0.73;;
6868;SDS011;3473;42.604;23.496;2022-10-19T02:38:36;1.07;;;0.60;;
6868;SDS011;3473;42.604;23.496;2022-10-19T02:40:07;0.40;;;0.40;;
6868;SDS011;3473;42.604;23.496;2022-10-19T02:41:40;1.70;;;0.77;;
6868;SDS011;3473;42.604;23.496;2022-10-19T02:43:13;0.63;;;0.60;;
6868;SDS011;3473;42.604;23.496;2022-10-19T02:44:45;1.20;;;0.77;;
6868;SDS011;3473;42.604;23.496;2022-10-19T02:46:18;1.03;;;1.03;;
6868;SDS011;3473;42.604;23.496;2022-10-19T02:47:53;0.20;;;0.20;;
6868;SDS011;3473;42.604;23.496;2022-10-19T02:49:24;0.63;;;0.40;;
6868;SDS011;3473;42.604;23.496;2022-10-19T02:50:57;2.13;;;0.60;;
6868;SDS011;3473;42.604;23.496;2022-10-19T02:52:28;0.30;;;0.30;;
6868;SDS011;3473;42.604;23.496;2022-10-19T02:54:00;0.70;;;0.30;;
6868;SDS011;3473;42.604;23.496;2022-10-19T02:55:31;0.40;;;0.40;;
6868;SDS011;3473;42.604;23.496;2022-10-19T02:57:02;1.27;;;1.00;;
6868;SDS011;3473;42.604;23.496;2022-10-19T02:58:34;3.73;;;1.00;;
6868;SDS011;3473;42.604;23.496;2022-10-19T03:00:06;0.80;;;0.60;;
6868;SDS011;3473;42.604;23.496;2022-10-19T03:01:37;1.23;;;0.83;;
6868;SDS011;3473;42.604;23.496;2022-10-19T03:03:10;3.57;;;0.93;;
6868;SDS011;3473;42.604;23.496;2022-10-19T03:04:42;5.17;;;1.00;;
6868;SDS011;3473;42.604;23.496;2022-10-19T03:06:14;1.40;;;0.97;;
6868;SDS011;3473;42.604;23.496;2022-10-19T03:07:46;1.67;;;0.80;;
6868;SDS011;3473;42.604;23.496;2022-10-19T03:09:17;0.67;;;0.63;;
6868;SDS011;3473;42.604;23.496;2022-10-19T03:10:49;1.20;;;0.97;;
6868;SDS011;3473;42.604;23.496;2022-10-19T03:12:20;0.30;;;0.30;;
6868;SDS011;3473;42.604;23.496;2022-10-19T03:13:51;1.03;;;0.93;;
6868;SDS011;3473;42.604;23.496;2022-10-19T03:15:22;2.00;;;1.00;;
6868;SDS011;3473;42.604;23.496;2022-10-19T03:16:56;0.77;;;0.77;;
6868;SDS011;3473;42.604;23.496;2022-10-19T03:18:29;1.30;;;0.93;;
6868;SDS011;3473;42.604;23.496;2022-10-19T03:20:00;0.47;;;0.47;;
6868;SDS011;3473;42.604;23.496;2022-10-19T03:21:32;1.13;;;0.97;;
6868;SDS011;3473;42.604;23.496;2022-10-19T03:23:04;1.93;;;0.87;;
6868;SDS011;3473;42.604;23.496;2022-10-19T03:24:35;0.97;;;0.83;;
6868;SDS011;3473;42.604;23.496;2022-10-19T03:26:06;4.47;;;1.53;;
6868;SDS011;3473;42.604;23.496;2022-10-19T03:27:38;1.03;;;0.93;;
6868;SDS011;3473;42.604;23.496;2022-10-19T03:29:10;4.67;;;1.30;;
6868;SDS011;3473;42.604;23.496;2022-10-19T03:30:41;3.23;;;1.23;;
6868;SDS011;3473;42.604;23.496;2022-10-19T03:32:13;0.70;;;0.70;;
6868;SDS011;3473;42.604;23.496;2022-10-19T03:33:45;1.50;;;1.07;;
6868;SDS011;3473;42.604;23.496;2022-10-19T03:35:17;2.40;;;0.93;;
6868;SDS011;3473;42.604;23.496;2022-10-19T03:36:48;0.60;;;0.60;;
6868;SDS011;3473;42.604;23.496;2022-10-19T03:38:20;0.60;;;0.50;;
6868;SDS011;3473;42.604;23.496;2022-10-19T03:39:51;0.90;;;0.60;;
6868;SDS011;3473;42.604;23.496;2022-10-19T03:41:24;0.90;;;0.90;;
6868;SDS011;3473;42.604;23.496;2022-10-19T03:42:56;1.57;;;0.70;;
6868;SDS011;3473;42.604;23.496;2022-10-19T03:44:27;3.60;;;1.30;;
6868;SDS011;3473;42.604;23.496;2022-10-19T03:45:59;0.80;;;0.70;;
6868;SDS011;3473;42.604;23.496;2022-10-19T03:47:29;0.53;;;0.53;;
6868;SDS011;3473;42.604;23.496;2022-10-19T03:49:02;2.57;;;0.70;;
6868;SDS011;3473;42.604;23.496;2022-10-19T03:50:34;1.07;;;0.80;;
6868;SDS011;3473;42.604;23.496;2022-10-19T03:52:05;0.53;;;0.53;;
6868;SDS011;3473;42.604;23.496;2022-10-19T03:53:39;1.17;;;0.87;;
6868;SDS011;3473;42.604;23.496;2022-10-19T03:55:11;1.50;;;0.77;;
6868;SDS011;3473;42.604;23.496;2022-10-19T03:56:42;0.63;;;0.63;;
6868;SDS011;3473;42.604;23.496;2022-10-19T03:58:14;0.50;;;0.50;;
6868;SDS011;3473;42.604;23.496;2022-10-19T03:59:45;1.17;;;0.47;;
6868;SDS011;3473;42.604;23.496;2022-10-19T04:01:17;0.67;;;0.57;;
6868;SDS011;3473;42.604;23.496;2022-10-19T04:02:49;0.67;;;0.60;;
6868;SDS011;3473;42.604;23.496;2022-10-19T04:04:21;0.93;;;0.60;;
6868;SDS011;3473;42.604;23.496;2022-10-19T04:05:52;0.57;;;0.57;;
6868;SDS011;3473;42.604;23.496;2022-10-19T04:07:31;3.10;;;1.00;;
6868;SDS011;3473;42.604;23.496;2022-10-19T04:09:03;2.37;;;1.10;;
6868;SDS011;3473;42.604;23.496;2022-10-19T04:10:33;3.90;;;1.53;;
6868;SDS011;3473;42.604;23.496;2022-10-19T04:12:05;1.03;;;0.77;;
6868;SDS011;3473;42.604;23.496;2022-10-19T04:13:36;0.60;;;0.60;;
6868;SDS011;3473;42.604;23.496;2022-10-19T04:15:07;1.70;;;1.30;;
6868;SDS011;3473;42.604;23.496;2022-10-19T04:16:39;0.80;;;0.80;;
6868;SDS011;3473;42.604;23.496;2022-10-19T04:18:11;0.90;;;0.90;;
6868;SDS011;3473;42.604;23.496;2022-10-19T04:19:43;1.53;;;1.07;;
6868;SDS011;3473;42.604;23.496;2022-10-19T04:21:19;3.20;;;1.13;;
6868;SDS011;3473;42.604;23.496;2022-10-19T04:22:51;1.30;;;0.80;;
6868;SDS011;3473;42.604;23.496;2022-10-19T04:24:22;2.67;;;0.93;;
6868;SDS011;3473;42.604;23.496;2022-10-19T04:25:58;2.77;;;1.17;;
6868;SDS011;3473;42.604;23.496;2022-10-19T04:27:29;0.53;;;0.53;;
6868;SDS011;3473;42.604;23.496;2022-10-19T04:29:01;1.20;;;1.10;;
6868;SDS011;3473;42.604;23.496;2022-10-19T04:30:32;2.93;;;1.30;;
6868;SDS011;3473;42.604;23.496;2022-10-19T04:32:04;3.47;;;1.07;;
6868;SDS011;3473;42.604;23.496;2022-10-19T04:33:35;1.20;;;1.10;;
6868;SDS011;3473;42.604;23.496;2022-10-19T04:35:08;1.60;;;1.00;;
6868;SDS011;3473;42.604;23.496;2022-10-19T04:36:39;1.30;;;0.60;;
6868;SDS011;3473;42.604;23.496;2022-10-19T04:38:11;1.10;;;1.00;;
6868;SDS011;3473;42.604;23.496;2022-10-19T04:39:41;0.67;;;0.67;;
6868;SDS011;3473;42.604;23.496;2022-10-19T04:41:15;1.27;;;0.70;;
6868;SDS011;3473;42.604;23.496;2022-10-19T04:42:46;1.17;;;0.90;;
6868;SDS011;3473;42.604;23.496;2022-10-19T04:44:18;2.23;;;1.17;;
6868;SDS011;3473;42.604;23.496;2022-10-19T04:45:49;1.00;;;0.90;;
6868;SDS011;3473;42.604;23.496;2022-10-19T04:47:21;1.97;;;1.40;;
6868;SDS011;3473;42.604;23.496;2022-10-19T04:48:53;2.40;;;1.20;;
6868;SDS011;3473;42.604;23.496;2022-10-19T04:50:26;1.10;;;1.00;;
6868;SDS011;3473;42.604;23.496;2022-10-19T04:51:57;2.20;;;1.23;;
6868;SDS011;3473;42.604;23.496;2022-10-19T04:53:29;1.60;;;1.03;;
6868;SDS011;3473;42.604;23.496;2022-10-19T04:54:59;2.50;;;1.67;;
6868;SDS011;3473;42.604;23.496;2022-10-19T04:56:31;3.23;;;2.20;;
6868;SDS011;3473;42.604;23.496;2022-10-19T04:58:02;8.80;;;1.40;;
6868;SDS011;3473;42.604;23.496;2022-10-19T04:59:33;1.30;;;0.80;;
6868;SDS011;3473;42.604;23.496;2022-10-19T05:01:08;2.60;;;1.07;;
6868;SDS011;3473;42.604;23.496;2022-10-19T05:02:41;3.20;;;0.90;;
6868;SDS011;3473;42.604;23.496;2022-10-19T05:04:13;0.77;;;0.73;;
6868;SDS011;3473;42.604;23.496;2022-10-19T05:05:45;1.23;;;0.80;;
6868;SDS011;3473;42.604;23.496;2022-10-19T05:07:16;0.90;;;0.87;;
6868;SDS011;3473;42.604;23.496;2022-10-19T05:08:47;1.47;;;0.93;;
6868;SDS011;3473;42.604;23.496;2022-10-19T05:10:19;2.97;;;1.50;;
6868;SDS011;3473;42.604;23.496;2022-10-19T05:11:51;1.30;;;1.20;;
6868;SDS011;3473;42.604;23.496;2022-10-19T05:13:22;2.13;;;1.40;;
6868;SDS011;3473;42.604;23.496;2022-10-19T05:14:54;0.77;;;0.63;;
6868;SDS011;3473;42.604;23.496;2022-10-19T05:16:25;3.23;;;1.53;;
6868;SDS011;3473;42.604;23.496;2022-10-19T05:17:57;2.23;;;1.83;;
6868;SDS011;3473;42.604;23.496;2022-10-19T05:19:28;1.40;;;1.20;;
6868;SDS011;3473;42.604;23.496;2022-10-19T05:21:02;1.90;;;1.50;;
6868;SDS011;3473;42.604;23.496;2022-10-19T05:22:34;2.03;;;1.30;;
6868;SDS011;3473;42.604;23.496;2022-10-19T05:24:05;3.20;;;1.70;;
6868;SDS011;3473;42.604;23.496;2022-10-19T05:25:37;1.20;;;1.10;;
6868;SDS011;3473;42.604;23.496;2022-10-19T05:27:08;1.60;;;1.00;;
6868;SDS011;3473;42.604;23.496;2022-10-19T05:28:40;5.50;;;2.33;;
6868;SDS011;3473;42.604;23.496;2022-10-19T05:30:11;2.53;;;1.47;;
6868;SDS011;3473;42.604;23.496;2022-10-19T05:31:43;2.20;;;1.47;;
6868;SDS011;3473;42.604;23.496;2022-10-19T05:33:15;9.77;;;1.93;;
6868;SDS011;3473;42.604;23.496;2022-10-19T05:34:46;2.63;;;1.33;;
6868;SDS011;3473;42.604;23.496;2022-10-19T05:36:20;1.57;;;0.87;;
6868;SDS011;3473;42.604;23.496;2022-10-19T05:37:54;1.97;;;1.53;;
6868;SDS011;3473;42.604;23.496;2022-10-19T05:39:25;1.47;;;1.10;;
6868;SDS011;3473;42.604;23.496;2022-10-19T05:40:57;1.97;;;1.27;;
6868;SDS011;3473;42.604;23.496;2022-10-19T05:42:28;0.80;;;0.80;;
6868;SDS011;3473;42.604;23.496;2022-10-19T05:44:00;2.23;;;1.57;;
6868;SDS011;3473;42.604;23.496;2022-10-19T05:45:32;2.33;;;1.73;;
6868;SDS011;3473;42.604;23.496;2022-10-19T05:47:03;3.13;;;1.37;;
6868;SDS011;3473;42.604;23.496;2022-10-19T05:48:35;4.33;;;1.43;;
6868;SDS011;3473;42.604;23.496;2022-10-19T05:50:07;2.20;;;1.73;;
6868;SDS011;3473;42.604;23.496;2022-10-19T05:51:40;6.13;;;2.67;;
6868;SDS011;3473;42.604;23.496;2022-10-19T05:53:11;24.20;;;9.17;;
6868;SDS011;3473;42.604;23.496;2022-10-19T05:54:43;25.90;;;7.40;;
6868;SDS011;3473;42.604;23.496;2022-10-19T05:56:16;19.03;;;9.07;;
6868;SDS011;3473;42.604;23.496;2022-10-19T05:57:47;12.60;;;4.83;;
6868;SDS011;3473;42.604;23.496;2022-10-19T05:59:19;5.47;;;3.20;;
6868;SDS011;3473;42.604;23.496;2022-10-19T06:00:52;4.93;;;2.23;;
6868;SDS011;3473;42.604;23.496;2022-10-19T06:02:22;4.37;;;2.37;;
6868;SDS011;3473;42.604;23.496;2022-10-19T06:03:55;4.80;;;2.03;;
6868;SDS011;3473;42.604;23.496;2022-10-19T06:05:27;2.90;;;1.90;;
6868;SDS011;3473;42.604;23.496;2022-10-19T06:06:59;2.33;;;2.10;;
6868;SDS011;3473;42.604;23.496;2022-10-19T06:08:31;7.40;;;2.63;;
6868;SDS011;3473;42.604;23.496;2022-10-19T06:10:02;7.07;;;3.10;;
6868;SDS011;3473;42.604;23.496;2022-10-19T06:11:34;2.27;;;1.63;;
6868;SDS011;3473;42.604;23.496;2022-10-19T06:13:06;2.77;;;1.60;;
6868;SDS011;3473;42.604;23.496;2022-10-19T06:14:38;1.80;;;1.20;;
6868;SDS011;3473;42.604;23.496;2022-10-19T06:16:10;2.13;;;1.40;;
6868;SDS011;3473;42.604;23.496;2022-10-19T06:17:41;3.17;;;1.67;;
6868;SDS011;3473;42.604;23.496;2022-10-19T06:19:13;2.20;;;1.40;;
6868;SDS011;3473;42.604;23.496;2022-10-19T06:20:44;4.43;;;2.13;;
6868;SDS011;3473;42.604;23.496;2022-10-19T06:22:17;2.40;;;1.40;;
6868;SDS011;3473;42.604;23.496;2022-10-19T06:23:49;5.07;;;1.73;;
6868;SDS011;3473;42.604;23.496;2022-10-19T06:25:20;4.70;;;1.53;;
6868;SDS011;3473;42.604;23.496;2022-10-19T06:26:52;2.73;;;1.80;;
6868;SDS011;3473;42.604;23.496;2022-10-19T06:28:23;5.77;;;2.93;;
6868;SDS011;3473;42.604;23.496;2022-10-19T06:29:53;3.37;;;1.67;;
6868;SDS011;3473;42.604;23.496;2022-10-19T06:31:25;7.10;;;3.37;;
6868;SDS011;3473;42.604;23.496;2022-10-19T06:32:57;7.83;;;3.73;;
6868;SDS011;3473;42.604;23.496;2022-10-19T06:34:28;6.07;;;3.40;;
6868;SDS011;3473;42.604;23.496;2022-10-19T06:36:04;3.97;;;2.07;;
6868;SDS011;3473;42.604;23.496;2022-10-19T06:37:36;3.73;;;1.77;;
6868;SDS011;3473;42.604;23.496;2022-10-19T06:39:08;11.07;;;3.03;;
6868;SDS011;3473;42.604;23.496;2022-10-19T06:40:39;3.53;;;2.43;;
6868;SDS011;3473;42.604;23.496;2022-10-19T06:42:11;4.03;;;2.13;;
6868;SDS011;3473;42.604;23.496;2022-10-19T06:43:42;3.53;;;2.03;;
6868;SDS011;3473;42.604;23.496;2022-10-19T06:45:14;4.73;;;2.03;;
6868;SDS011;3473;42.604;23.496;2022-10-19T06:46:45;4.33;;;1.93;;
6868;SDS011;3473;42.604;23.496;2022-10-19T06:48:17;2.73;;;1.73;;
6868;SDS011;3473;42.604;23.496;2022-10-19T06:49:48;3.87;;;1.80;;
6868;SDS011;3473;42.604;23.496;2022-10-19T06:51:20;3.47;;;2.50;;
6868;SDS011;3473;42.604;23.496;2022-10-19T06:52:53;4.63;;;2.17;;
6868;SDS011;3473;42.604;23.496;2022-10-19T06:54:25;5.47;;;2.50;;
6868;SDS011;3473;42.604;23.496;2022-10-19T06:55:56;4.13;;;2.57;;
6868;SDS011;3473;42.604;23.496;2022-10-19T06:57:28;4.63;;;2.43;;
6868;SDS011;3473;42.604;23.496;2022-10-19T06:58:59;4.10;;;2.87;;
6868;SDS011;3473;42.604;23.496;2022-10-19T07:00:31;3.70;;;2.50;;
6868;SDS011;3473;42.604;23.496;2022-10-19T07:02:02;8.70;;;3.77;;
6868;SDS011;3473;42.604;23.496;2022-10-19T07:03:35;6.23;;;3.10;;
6868;SDS011;3473;42.604;23.496;2022-10-19T07:05:06;4.13;;;2.83;;
6868;SDS011;3473;42.604;23.496;2022-10-19T07:06:38;4.60;;;1.90;;
6868;SDS011;3473;42.604;23.496;2022-10-19T07:08:11;5.77;;;2.63;;
6868;SDS011;3473;42.604;23.496;2022-10-19T07:09:42;4.40;;;2.30;;
6868;SDS011;3473;42.604;23.496;2022-10-19T07:11:15;4.03;;;2.53;;
6868;SDS011;3473;42.604;23.496;2022-10-19T07:12:46;5.80;;;2.90;;
6868;SDS011;3473;42.604;23.496;2022-10-19T07:14:18;5.80;;;2.83;;
6868;SDS011;3473;42.604;23.496;2022-10-19T07:15:55;5.67;;;2.50;;
6868;SDS011;3473;42.604;23.496;2022-10-19T07:17:26;7.30;;;2.70;;
6868;SDS011;3473;42.604;23.496;2022-10-19T07:18:59;8.30;;;2.57;;
6868;SDS011;3473;42.604;23.496;2022-10-19T07:20:30;4.93;;;3.03;;
6868;SDS011;3473;42.604;23.496;2022-10-19T07:22:02;3.93;;;2.57;;
6868;SDS011;3473;42.604;23.496;2022-10-19T07:23:35;3.67;;;2.20;;
6868;SDS011;3473;42.604;23.496;2022-10-19T07:25:07;4.67;;;2.30;;
6868;SDS011;3473;42.604;23.496;2022-10-19T07:26:39;6.33;;;2.37;;
6868;SDS011;3473;42.604;23.496;2022-10-19T07:28:10;6.70;;;2.47;;
6868;SDS011;3473;42.604;23.496;2022-10-19T07:29:42;5.90;;;2.50;;
6868;SDS011;3473;42.604;23.496;2022-10-19T07:31:14;3.43;;;2.00;;
6868;SDS011;3473;42.604;23.496;2022-10-19T07:32:46;5.20;;;2.63;;
6868;SDS011;3473;42.604;23.496;2022-10-19T07:34:18;3.10;;;2.10;;
6868;SDS011;3473;42.604;23.496;2022-10-19T07:35:49;2.67;;;2.03;;
6868;SDS011;3473;42.604;23.496;2022-10-19T07:37:21;2.83;;;2.00;;
6868;SDS011;3473;42.604;23.496;2022-10-19T07:38:54;3.03;;;2.13;;
6868;SDS011;3473;42.604;23.496;2022-10-19T07:40:25;3.23;;;2.13;;
6868;SDS011;3473;42.604;23.496;2022-10-19T07:41:57;3.13;;;2.07;;
6868;SDS011;3473;42.604;23.496;2022-10-19T07:43:28;3.20;;;1.87;;
6868;SDS011;3473;42.604;23.496;2022-10-19T07:45:00;3.20;;;2.10;;
6868;SDS011;3473;42.604;23.496;2022-10-19T07:46:31;2.43;;;1.63;;
6868;SDS011;3473;42.604;23.496;2022-10-19T07:48:05;2.70;;;1.67;;
6868;SDS011;3473;42.604;23.496;2022-10-19T07:49:36;3.10;;;1.87;;
6868;SDS011;3473;42.604;23.496;2022-10-19T07:51:09;4.37;;;1.90;;
6868;SDS011;3473;42.604;23.496;2022-10-19T07:52:41;3.80;;;2.20;;
6868;SDS011;3473;42.604;23.496;2022-10-19T07:54:13;2.97;;;1.93;;
6868;SDS011;3473;42.604;23.496;2022-10-19T07:55:45;4.03;;;1.77;;
6868;SDS011;3473;42.604;23.496;2022-10-19T07:57:16;2.87;;;1.93;;
6868;SDS011;3473;42.604;23.496;2022-10-19T07:58:48;2.33;;;1.87;;
6868;SDS011;3473;42.604;23.496;2022-10-19T08:00:20;3.53;;;1.87;;
6868;SDS011;3473;42.604;23.496;2022-10-19T08:01:52;3.77;;;1.87;;
6868;SDS011;3473;42.604;23.496;2022-10-19T08:03:23;1.93;;;1.53;;
6868;SDS011;3473;42.604;23.496;2022-10-19T08:04:55;3.13;;;2.27;;
6868;SDS011;3473;42.604;23.496;2022-10-19T08:06:26;2.33;;;1.40;;
6868;SDS011;3473;42.604;23.496;2022-10-19T08:07:58;3.10;;;1.83;;
6868;SDS011;3473;42.604;23.496;2022-10-19T08:09:31;3.93;;;1.87;;
6868;SDS011;3473;42.604;23.496;2022-10-19T08:11:06;3.23;;;2.27;;
6868;SDS011;3473;42.604;23.496;2022-10-19T08:12:38;3.43;;;1.90;;
6868;SDS011;3473;42.604;23.496;2022-10-19T08:14:09;3.47;;;1.90;;
6868;SDS011;3473;42.604;23.496;2022-10-19T08:15:41;2.43;;;1.83;;
6868;SDS011;3473;42.604;23.496;2022-10-19T08:17:12;3.30;;;1.70;;
6868;SDS011;3473;42.604;23.496;2022-10-19T08:18:46;2.60;;;2.00;;
6868;SDS011;3473;42.604;23.496;2022-10-19T08:20:19;2.13;;;1.60;;
6868;SDS011;3473;42.604;23.496;2022-10-19T08:21:50;5.37;;;1.70;;
6868;SDS011;3473;42.604;23.496;2022-10-19T08:23:21;2.27;;;1.70;;
6868;SDS011;3473;42.604;23.496;2022-10-19T08:24:55;2.37;;;1.60;;
6868;SDS011;3473;42.604;23.496;2022-10-19T08:26:27;2.60;;;1.70;;
6868;SDS011;3473;42.604;23.496;2022-10-19T08:27:58;1.90;;;1.23;;
6868;SDS011;3473;42.604;23.496;2022-10-19T08:29:30;4.07;;;1.90;;
6868;SDS011;3473;42.604;23.496;2022-10-19T08:31:07;4.73;;;2.10;;
6868;SDS011;3473;42.604;23.496;2022-10-19T08:32:39;3.30;;;1.63;;
6868;SDS011;3473;42.604;23.496;2022-10-19T08:34:11;1.90;;;1.63;;
6868;SDS011;3473;42.604;23.496;2022-10-19T08:35:42;2.07;;;1.50;;
6868;SDS011;3473;42.604;23.496;2022-10-19T08:37:14;1.93;;;1.50;;
6868;SDS011;3473;42.604;23.496;2022-10-19T08:38:45;2.30;;;1.60;;
6868;SDS011;3473;42.604;23.496;2022-10-19T08:40:19;4.17;;;1.60;;
6868;SDS011;3473;42.604;23.496;2022-10-19T08:41:58;1.53;;;1.43;;
6868;SDS011;3473;42.604;23.496;2022-10-19T08:43:32;1.87;;;1.50;;
6868;SDS011;3473;42.604;23.496;2022-10-19T08:45:20;2.47;;;1.73;;
6868;SDS011;3473;42.604;23.496;2022-10-19T08:46:55;2.77;;;1.63;;
6868;SDS011;3473;42.604;23.496;2022-10-19T08:48:30;1.53;;;1.40;;
6868;SDS011;3473;42.604;23.496;2022-10-19T08:50:06;2.97;;;1.60;;
6868;SDS011;3473;42.604;23.496;2022-10-19T08:51:45;1.90;;;1.50;;
6868;SDS011;3473;42.604;23.496;2022-10-19T08:53:21;2.77;;;1.73;;
6868;SDS011;3473;42.604;23.496;2022-10-19T08:54:55;3.93;;;1.90;;
6868;SDS011;3473;42.604;23.496;2022-10-19T08:56:28;2.40;;;1.20;;
6868;SDS011;3473;42.604;23.496;2022-10-19T08:58:02;2.13;;;1.57;;
6868;SDS011;3473;42.604;23.496;2022-10-19T08:59:37;1.33;;;1.20;;
6868;SDS011;3473;42.604;23.496;2022-10-19T09:01:12;1.73;;;1.43;;
6868;SDS011;3473;42.604;23.496;2022-10-19T09:02:50;2.10;;;1.43;;
6868;SDS011;3473;42.604;23.496;2022-10-19T09:04:25;2.10;;;1.47;;
6868;SDS011;3473;42.604;23.496;2022-10-19T09:05:59;2.97;;;1.83;;
6868;SDS011;3473;42.604;23.496;2022-10-19T09:07:34;2.27;;;1.50;;
6868;SDS011;3473;42.604;23.496;2022-10-19T09:09:14;1.83;;;1.40;;
6868;SDS011;3473;42.604;23.496;2022-10-19T09:10:47;2.17;;;1.50;;
6868;SDS011;3473;42.604;23.496;2022-10-19T09:12:23;3.17;;;1.60;;
6868;SDS011;3473;42.604;23.496;2022-10-19T09:13:57;2.20;;;1.50;;
6868;SDS011;3473;42.604;23.496;2022-10-19T09:15:32;2.37;;;1.30;;
6868;SDS011;3473;42.604;23.496;2022-10-19T09:17:05;2.67;;;1.60;;
6868;SDS011;3473;42.604;23.496;2022-10-19T09:18:40;2.77;;;1.63;;
6868;SDS011;3473;42.604;23.496;2022-10-19T09:20:14;2.33;;;1.50;;
6868;SDS011;3473;42.604;23.496;2022-10-19T09:21:46;1.90;;;1.50;;
6868;SDS011;3473;42.604;23.496;2022-10-19T09:23:19;3.97;;;2.10;;
6868;SDS011;3473;42.604;23.496;2022-10-19T09:24:51;2.33;;;1.73;;
6868;SDS011;3473;42.604;23.496;2022-10-19T09:26:25;2.87;;;1.60;;
6868;SDS011;3473;42.604;23.496;2022-10-19T09:28:01;2.30;;;1.63;;
6868;SDS011;3473;42.604;23.496;2022-10-19T09:29:35;2.43;;;1.63;;